sensor_id;sensor_type;location;lat;lon;timestamp;temperature;humidity
21445;DHT22;10883;51.946;20.140;2022-12-04T00:00:54;1.60;99.90
21445;DHT22;10883;51.946;20.140;2022-12-04T00:03:19;1.60;99.90
21445;DHT22;10883;51.946;20.140;2022-12-04T00:05:45;1.60;99.90
21445;DHT22;10883;51.946;20.140;2022-12-04T00:08:11;1.60;99.90
21445;DHT22;10883;51.946;20.140;2022-12-04T00:10:41;1.70;99.90
21445;DHT22;10883;51.946;20.140;2022-12-04T00:13:08;1.60;99.90
21445;DHT22;10883;51.946;20.140;2022-12-04T00:15:33;1.60;99.90
21445;DHT22;10883;51.946;20.140;2022-12-04T00:17:59;1.50;99.90
21445;DHT22;10883;51.946;20.140;2022-12-04T00:20:25;1.50;99.90
21445;DHT22;10883;51.946;20.140;2022-12-04T00:22:51;1.50;99.90
21445;DHT22;10883;51.946;20.140;2022-12-04T00:25:17;1.50;99.90
21445;DHT22;10883;51.946;20.140;2022-12-04T00:27:43;1.50;99.90
21445;DHT22;10883;51.946;20.140;2022-12-04T00:30:09;1.50;99.90
21445;DHT22;10883;51.946;20.140;2022-12-04T00:32:35;1.50;99.90
21445;DHT22;10883;51.946;20.140;2022-12-04T00:35:02;1.50;99.90
21445;DHT22;10883;51.946;20.140;2022-12-04T00:37:28;1.50;99.90
21445;DHT22;10883;51.946;20.140;2022-12-04T00:39:53;1.50;99.90
21445;DHT22;10883;51.946;20.140;2022-12-04T00:42:19;1.50;99.90
21445;DHT22;10883;51.946;20.140;2022-12-04T00:44:45;1.50;99.90
21445;DHT22;10883;51.946;20.140;2022-12-04T00:47:11;1.50;99.90
21445;DHT22;10883;51.946;20.140;2022-12-04T00:49:36;1.50;99.90
21445;DHT22;10883;51.946;20.140;2022-12-04T00:52:02;1.50;99.90
21445;DHT22;10883;51.946;20.140;2022-12-04T00:54:30;1.50;99.90
21445;DHT22;10883;51.946;20.140;2022-12-04T00:56:55;1.50;99.90
21445;DHT22;10883;51.946;20.140;2022-12-04T00:59:21;1.50;99.90
21445;DHT22;10883;51.946;20.140;2022-12-04T01:01:47;1.50;99.90
21445;DHT22;10883;51.946;20.140;2022-12-04T01:04:13;1.50;99.90
21445;DHT22;10883;51.946;20.140;2022-12-04T01:06:39;1.50;99.90
21445;DHT22;10883;51.946;20.140;2022-12-04T01:09:05;1.50;99.90
21445;DHT22;10883;51.946;20.140;2022-12-04T01:11:31;1.50;99.90
21445;DHT22;10883;51.946;20.140;2022-12-04T01:13:58;1.40;99.90
21445;DHT22;10883;51.946;20.140;2022-12-04T01:16:32;1.40;99.90
21445;DHT22;10883;51.946;20.140;2022-12-04T01:18:59;1.40;99.90
21445;DHT22;10883;51.946;20.140;2022-12-04T01:21:25;1.40;99.90
21445;DHT22;10883;51.946;20.140;2022-12-04T01:23:51;1.40;99.90
21445;DHT22;10883;51.946;20.140;2022-12-04T01:26:17;1.40;99.90
21445;DHT22;10883;51.946;20.140;2022-12-04T01:28:43;1.40;99.90
21445;DHT22;10883;51.946;20.140;2022-12-04T01:31:14;1.40;99.90
21445;DHT22;10883;51.946;20.140;2022-12-04T01:33:41;1.40;99.90
21445;DHT22;10883;51.946;20.140;2022-12-04T01:36:10;1.50;99.90
21445;DHT22;10883;51.946;20.140;2022-12-04T01:38:37;1.40;99.90
21445;DHT22;10883;51.946;20.140;2022-12-04T01:41:04;1.40;99.90
21445;DHT22;10883;51.946;20.140;2022-12-04T01:43:31;1.40;99.90
21445;DHT22;10883;51.946;20.140;2022-12-04T01:45:59;1.40;99.90
21445;DHT22;10883;51.946;20.140;2022-12-04T01:48:44;1.50;99.90
21445;DHT22;10883;51.946;20.140;2022-12-04T01:51:26;1.40;99.90
21445;DHT22;10883;51.946;20.140;2022-12-04T01:54:04;1.40;99.90
21445;DHT22;10883;51.946;20.140;2022-12-04T01:56:45;1.40;99.90
21445;DHT22;10883;51.946;20.140;2022-12-04T01:59:16;1.50;99.90
21445;DHT22;10883;51.946;20.140;2022-12-04T02:01:51;1.50;99.90
21445;DHT22;10883;51.946;20.140;2022-12-04T02:04:18;1.50;99.90
21445;DHT22;10883;51.946;20.140;2022-12-04T02:06:44;1.50;99.90
21445;DHT22;10883;51.946;20.140;2022-12-04T02:09:10;1.50;99.90
21445;DHT22;10883;51.946;20.140;2022-12-04T02:11:51;1.50;99.90
21445;DHT22;10883;51.946;20.140;2022-12-04T02:14:39;1.50;99.90
21445;DHT22;10883;51.946;20.140;2022-12-04T02:30:39;1.40;99.90
21445;DHT22;10883;51.946;20.140;2022-12-04T02:36:20;1.40;99.90
21445;DHT22;10883;51.946;20.140;2022-12-04T02:38:57;1.40;99.90
21445;DHT22;10883;51.946;20.140;2022-12-04T02:41:37;1.40;99.90
21445;DHT22;10883;51.946;20.140;2022-12-04T02:46:39;1.40;99.90
21445;DHT22;10883;51.946;20.140;2022-12-04T02:49:13;1.40;99.90
21445;DHT22;10883;51.946;20.140;2022-12-04T02:51:43;1.50;99.90
21445;DHT22;10883;51.946;20.140;2022-12-04T02:54:16;1.40;99.90
21445;DHT22;10883;51.946;20.140;2022-12-04T02:56:44;1.40;99.90
21445;DHT22;10883;51.946;20.140;2022-12-04T02:59:37;1.40;99.90
21445;DHT22;10883;51.946;20.140;2022-12-04T03:02:17;1.40;99.90
21445;DHT22;10883;51.946;20.140;2022-12-04T03:04:46;1.50;99.90
21445;DHT22;10883;51.946;20.140;2022-12-04T03:07:22;1.40;99.90
21445;DHT22;10883;51.946;20.140;2022-12-04T03:09:55;1.40;99.90
21445;DHT22;10883;51.946;20.140;2022-12-04T03:12:53;1.40;99.90
21445;DHT22;10883;51.946;20.140;2022-12-04T03:15:28;1.40;99.90
21445;DHT22;10883;51.946;20.140;2022-12-04T03:18:02;1.40;99.90
21445;DHT22;10883;51.946;20.140;2022-12-04T03:20:31;1.50;99.90
21445;DHT22;10883;51.946;20.140;2022-12-04T03:23:23;1.40;99.90
21445;DHT22;10883;51.946;20.140;2022-12-04T03:25:58;1.50;99.90
21445;DHT22;10883;51.946;20.140;2022-12-04T03:28:30;1.50;99.90
21445;DHT22;10883;51.946;20.140;2022-12-04T03:31:02;1.50;99.90
21445;DHT22;10883;51.946;20.140;2022-12-04T03:33:40;1.50;99.90
21445;DHT22;10883;51.946;20.140;2022-12-04T03:36:17;1.50;99.90
21445;DHT22;10883;51.946;20.140;2022-12-04T03:39:02;1.40;99.90
21445;DHT22;10883;51.946;20.140;2022-12-04T03:41:58;1.40;99.90
21445;DHT22;10883;51.946;20.140;2022-12-04T03:45:18;1.50;99.90
21445;DHT22;10883;51.946;20.140;2022-12-04T03:47:37;1.50;99.90
21445;DHT22;10883;51.946;20.140;2022-12-04T03:50:41;1.40;99.90
21445;DHT22;10883;51.946;20.140;2022-12-04T03:56:21;1.50;99.90
21445;DHT22;10883;51.946;20.140;2022-12-04T03:58:53;1.40;99.90
21445;DHT22;10883;51.946;20.140;2022-12-04T04:01:22;1.40;99.90
21445;DHT22;10883;51.946;20.140;2022-12-04T04:03:51;1.40;99.90
21445;DHT22;10883;51.946;20.140;2022-12-04T04:06:26;1.40;99.90
21445;DHT22;10883;51.946;20.140;2022-12-04T04:08:57;1.40;99.90
21445;DHT22;10883;51.946;20.140;2022-12-04T04:11:30;1.40;99.90
21445;DHT22;10883;51.946;20.140;2022-12-04T04:14:10;1.40;99.90
21445;DHT22;10883;51.946;20.140;2022-12-04T04:17:01;1.40;99.90
21445;DHT22;10883;51.946;20.140;2022-12-04T04:19:55;1.40;99.90
21445;DHT22;10883;51.946;20.140;2022-12-04T04:22:42;1.40;99.90
21445;DHT22;10883;51.946;20.140;2022-12-04T04:25:27;1.40;99.90
21445;DHT22;10883;51.946;20.140;2022-12-04T04:27:55;1.40;99.90
21445;DHT22;10883;51.946;20.140;2022-12-04T04:30:22;1.40;99.90
21445;DHT22;10883;51.946;20.140;2022-12-04T04:38:11;1.40;99.90
21445;DHT22;10883;51.946;20.140;2022-12-04T04:41:10;1.40;99.90
21445;DHT22;10883;51.946;20.140;2022-12-04T04:44:45;1.40;99.90
21445;DHT22;10883;51.946;20.140;2022-12-04T04:46:49;1.30;99.90
21445;DHT22;10883;51.946;20.140;2022-12-04T04:49:18;1.40;99.90
21445;DHT22;10883;51.946;20.140;2022-12-04T04:51:47;1.40;99.90
21445;DHT22;10883;51.946;20.140;2022-12-04T04:54:14;1.40;99.90
21445;DHT22;10883;51.946;20.140;2022-12-04T04:56:42;1.30;99.90
21445;DHT22;10883;51.946;20.140;2022-12-04T04:59:09;1.30;99.90
21445;DHT22;10883;51.946;20.140;2022-12-04T05:01:37;1.30;99.90
21445;DHT22;10883;51.946;20.140;2022-12-04T05:04:04;1.30;99.90
21445;DHT22;10883;51.946;20.140;2022-12-04T05:06:30;1.40;99.90
21445;DHT22;10883;51.946;20.140;2022-12-04T05:08:56;1.40;99.90
21445;DHT22;10883;51.946;20.140;2022-12-04T05:11:22;1.40;99.90
21445;DHT22;10883;51.946;20.140;2022-12-04T05:13:48;1.30;99.90
21445;DHT22;10883;51.946;20.140;2022-12-04T05:16:14;1.30;99.90
21445;DHT22;10883;51.946;20.140;2022-12-04T05:18:40;1.30;99.90
21445;DHT22;10883;51.946;20.140;2022-12-04T05:21:26;1.30;99.90
21445;DHT22;10883;51.946;20.140;2022-12-04T05:23:52;1.30;99.90
21445;DHT22;10883;51.946;20.140;2022-12-04T05:26:18;1.30;99.90
21445;DHT22;10883;51.946;20.140;2022-12-04T05:28:44;1.30;99.90
21445;DHT22;10883;51.946;20.140;2022-12-04T05:31:09;1.30;99.90
21445;DHT22;10883;51.946;20.140;2022-12-04T05:33:35;1.30;99.90
21445;DHT22;10883;51.946;20.140;2022-12-04T05:36:04;1.20;99.90
21445;DHT22;10883;51.946;20.140;2022-12-04T05:38:31;1.30;99.90
21445;DHT22;10883;51.946;20.140;2022-12-04T05:40:58;1.30;99.90
21445;DHT22;10883;51.946;20.140;2022-12-04T05:43:24;1.30;99.90
21445;DHT22;10883;51.946;20.140;2022-12-04T05:45:49;1.30;99.90
21445;DHT22;10883;51.946;20.140;2022-12-04T05:48:15;1.30;99.90
21445;DHT22;10883;51.946;20.140;2022-12-04T05:50:41;1.30;99.90
21445;DHT22;10883;51.946;20.140;2022-12-04T05:53:07;1.30;99.90
21445;DHT22;10883;51.946;20.140;2022-12-04T05:55:33;1.30;99.90
21445;DHT22;10883;51.946;20.140;2022-12-04T05:57:59;1.30;99.90
21445;DHT22;10883;51.946;20.140;2022-12-04T06:00:24;1.30;99.90
21445;DHT22;10883;51.946;20.140;2022-12-04T06:02:50;1.30;99.90
21445;DHT22;10883;51.946;20.140;2022-12-04T06:05:16;1.30;99.90
21445;DHT22;10883;51.946;20.140;2022-12-04T06:07:42;1.30;99.90
21445;DHT22;10883;51.946;20.140;2022-12-04T06:10:08;1.30;99.90
21445;DHT22;10883;51.946;20.140;2022-12-04T06:12:33;1.30;99.90
21445;DHT22;10883;51.946;20.140;2022-12-04T06:14:59;1.30;99.90
21445;DHT22;10883;51.946;20.140;2022-12-04T06:17:25;1.30;99.90
21445;DHT22;10883;51.946;20.140;2022-12-04T06:19:51;1.30;99.90
21445;DHT22;10883;51.946;20.140;2022-12-04T06:22:18;1.30;99.90
21445;DHT22;10883;51.946;20.140;2022-12-04T06:24:43;1.30;99.90
21445;DHT22;10883;51.946;20.140;2022-12-04T06:27:09;1.30;99.90
21445;DHT22;10883;51.946;20.140;2022-12-04T06:29:35;1.30;99.90
21445;DHT22;10883;51.946;20.140;2022-12-04T06:32:01;1.30;99.90
21445;DHT22;10883;51.946;20.140;2022-12-04T06:34:27;1.30;99.90
21445;DHT22;10883;51.946;20.140;2022-12-04T06:36:53;1.30;99.90
21445;DHT22;10883;51.946;20.140;2022-12-04T06:39:19;1.30;99.90
21445;DHT22;10883;51.946;20.140;2022-12-04T06:41:44;1.20;99.90
21445;DHT22;10883;51.946;20.140;2022-12-04T06:44:13;1.20;99.90
21445;DHT22;10883;51.946;20.140;2022-12-04T06:46:39;1.30;99.90
21445;DHT22;10883;51.946;20.140;2022-12-04T06:49:04;1.30;99.90
21445;DHT22;10883;51.946;20.140;2022-12-04T06:51:33;1.30;99.90
21445;DHT22;10883;51.946;20.140;2022-12-04T06:54:00;1.30;99.90
21445;DHT22;10883;51.946;20.140;2022-12-04T06:56:28;1.30;99.90
21445;DHT22;10883;51.946;20.140;2022-12-04T06:58:57;1.30;99.90
21445;DHT22;10883;51.946;20.140;2022-12-04T07:01:26;1.30;99.90
21445;DHT22;10883;51.946;20.140;2022-12-04T07:03:52;1.30;99.90
21445;DHT22;10883;51.946;20.140;2022-12-04T07:06:27;1.30;99.90
21445;DHT22;10883;51.946;20.140;2022-12-04T07:09:02;1.30;99.90
21445;DHT22;10883;51.946;20.140;2022-12-04T07:11:28;1.30;99.90
21445;DHT22;10883;51.946;20.140;2022-12-04T07:13:55;1.30;99.90
21445;DHT22;10883;51.946;20.140;2022-12-04T07:16:22;1.30;99.90
21445;DHT22;10883;51.946;20.140;2022-12-04T07:18:48;1.30;99.90
21445;DHT22;10883;51.946;20.140;2022-12-04T07:21:17;1.40;99.90
21445;DHT22;10883;51.946;20.140;2022-12-04T07:23:44;1.30;99.90
21445;DHT22;10883;51.946;20.140;2022-12-04T07:26:13;1.40;99.90
21445;DHT22;10883;51.946;20.140;2022-12-04T07:28:39;1.40;99.90
21445;DHT22;10883;51.946;20.140;2022-12-04T07:31:11;1.40;99.90
21445;DHT22;10883;51.946;20.140;2022-12-04T07:33:39;1.40;99.90
21445;DHT22;10883;51.946;20.140;2022-12-04T07:36:08;1.40;99.90
21445;DHT22;10883;51.946;20.140;2022-12-04T07:38:36;1.40;99.90
21445;DHT22;10883;51.946;20.140;2022-12-04T07:41:04;1.50;99.90
21445;DHT22;10883;51.946;20.140;2022-12-04T07:43:32;1.50;99.90
21445;DHT22;10883;51.946;20.140;2022-12-04T07:46:02;1.50;99.90
21445;DHT22;10883;51.946;20.140;2022-12-04T07:48:28;1.40;99.90
21445;DHT22;10883;51.946;20.140;2022-12-04T07:51:11;1.40;99.90
21445;DHT22;10883;51.946;20.140;2022-12-04T07:53:38;1.50;99.90
21445;DHT22;10883;51.946;20.140;2022-12-04T07:56:05;1.50;99.90
21445;DHT22;10883;51.946;20.140;2022-12-04T07:58:31;1.50;99.90
21445;DHT22;10883;51.946;20.140;2022-12-04T08:01:23;1.50;99.90
21445;DHT22;10883;51.946;20.140;2022-12-04T08:03:51;1.50;99.90
21445;DHT22;10883;51.946;20.140;2022-12-04T08:06:22;1.50;99.90
21445;DHT22;10883;51.946;20.140;2022-12-04T08:08:49;1.50;99.90
21445;DHT22;10883;51.946;20.140;2022-12-04T08:11:17;1.50;99.90
21445;DHT22;10883;51.946;20.140;2022-12-04T08:13:44;1.50;99.90
21445;DHT22;10883;51.946;20.140;2022-12-04T08:16:11;1.50;99.90
21445;DHT22;10883;51.946;20.140;2022-12-04T08:18:37;1.60;99.90
21445;DHT22;10883;51.946;20.140;2022-12-04T08:21:08;1.60;99.90
21445;DHT22;10883;51.946;20.140;2022-12-04T08:23:34;1.60;99.90
21445;DHT22;10883;51.946;20.140;2022-12-04T08:26:01;1.60;99.90
21445;DHT22;10883;51.946;20.140;2022-12-04T08:28:28;1.60;99.90
21445;DHT22;10883;51.946;20.140;2022-12-04T08:30:54;1.60;99.90
21445;DHT22;10883;51.946;20.140;2022-12-04T08:33:20;1.70;99.90
21445;DHT22;10883;51.946;20.140;2022-12-04T08:35:46;1.70;99.90
21445;DHT22;10883;51.946;20.140;2022-12-04T08:38:11;1.70;99.90
21445;DHT22;10883;51.946;20.140;2022-12-04T08:40:37;1.70;99.90
21445;DHT22;10883;51.946;20.140;2022-12-04T08:43:03;1.70;99.90
21445;DHT22;10883;51.946;20.140;2022-12-04T08:45:28;1.70;99.90
21445;DHT22;10883;51.946;20.140;2022-12-04T08:47:54;1.70;99.90
21445;DHT22;10883;51.946;20.140;2022-12-04T08:50:20;1.60;99.90
21445;DHT22;10883;51.946;20.140;2022-12-04T08:52:46;1.60;99.90
21445;DHT22;10883;51.946;20.140;2022-12-04T08:55:11;1.70;99.90
21445;DHT22;10883;51.946;20.140;2022-12-04T08:57:37;1.60;99.90
21445;DHT22;10883;51.946;20.140;2022-12-04T09:00:04;1.60;99.90
21445;DHT22;10883;51.946;20.140;2022-12-04T09:02:30;1.60;99.90
21445;DHT22;10883;51.946;20.140;2022-12-04T09:04:55;1.60;99.90
21445;DHT22;10883;51.946;20.140;2022-12-04T09:07:21;1.60;99.90
21445;DHT22;10883;51.946;20.140;2022-12-04T09:09:48;1.60;99.90
21445;DHT22;10883;51.946;20.140;2022-12-04T09:12:14;1.70;99.90
21445;DHT22;10883;51.946;20.140;2022-12-04T09:14:40;1.70;99.90
21445;DHT22;10883;51.946;20.140;2022-12-04T09:17:06;1.70;99.90
21445;DHT22;10883;51.946;20.140;2022-12-04T09:19:32;1.70;99.90
21445;DHT22;10883;51.946;20.140;2022-12-04T09:21:59;1.70;99.90
21445;DHT22;10883;51.946;20.140;2022-12-04T09:24:25;1.80;99.90
21445;DHT22;10883;51.946;20.140;2022-12-04T09:26:52;1.80;99.90
21445;DHT22;10883;51.946;20.140;2022-12-04T09:29:18;1.90;99.90
21445;DHT22;10883;51.946;20.140;2022-12-04T09:31:44;1.90;99.90
21445;DHT22;10883;51.946;20.140;2022-12-04T09:34:10;1.80;99.90
21445;DHT22;10883;51.946;20.140;2022-12-04T09:36:36;1.80;99.90
21445;DHT22;10883;51.946;20.140;2022-12-04T09:39:02;1.80;99.90
21445;DHT22;10883;51.946;20.140;2022-12-04T09:45:06;1.90;99.90
21445;DHT22;10883;51.946;20.140;2022-12-04T09:47:37;1.80;99.90
21445;DHT22;10883;51.946;20.140;2022-12-04T09:55:52;1.90;99.90
21445;DHT22;10883;51.946;20.140;2022-12-04T10:04:18;1.90;99.90
21445;DHT22;10883;51.946;20.140;2022-12-04T10:07:10;1.90;99.90
21445;DHT22;10883;51.946;20.140;2022-12-04T10:12:55;1.80;99.90
21445;DHT22;10883;51.946;20.140;2022-12-04T10:15:31;1.80;99.90
21445;DHT22;10883;51.946;20.140;2022-12-04T10:24:17;1.80;99.90
21445;DHT22;10883;51.946;20.140;2022-12-04T10:26:47;1.90;99.90
21445;DHT22;10883;51.946;20.140;2022-12-04T10:29:26;1.90;99.90
21445;DHT22;10883;51.946;20.140;2022-12-04T10:31:55;1.90;99.90
21445;DHT22;10883;51.946;20.140;2022-12-04T10:34:28;2.00;99.90
21445;DHT22;10883;51.946;20.140;2022-12-04T10:37:04;2.00;99.90
21445;DHT22;10883;51.946;20.140;2022-12-04T10:39:41;2.00;99.90
21445;DHT22;10883;51.946;20.140;2022-12-04T10:44:50;1.90;99.90
21445;DHT22;10883;51.946;20.140;2022-12-04T10:47:16;1.90;99.90
21445;DHT22;10883;51.946;20.140;2022-12-04T10:49:42;1.90;99.90
21445;DHT22;10883;51.946;20.140;2022-12-04T10:52:10;1.90;99.90
21445;DHT22;10883;51.946;20.140;2022-12-04T10:54:44;2.00;99.90
21445;DHT22;10883;51.946;20.140;2022-12-04T10:57:13;2.00;99.90
21445;DHT22;10883;51.946;20.140;2022-12-04T11:02:29;2.20;99.90
21445;DHT22;10883;51.946;20.140;2022-12-04T11:04:58;2.20;99.90
21445;DHT22;10883;51.946;20.140;2022-12-04T11:07:45;2.30;99.90
21445;DHT22;10883;51.946;20.140;2022-12-04T11:12:53;2.30;99.90
21445;DHT22;10883;51.946;20.140;2022-12-04T11:15:20;2.40;99.90
21445;DHT22;10883;51.946;20.140;2022-12-04T11:17:46;2.30;99.90
21445;DHT22;10883;51.946;20.140;2022-12-04T11:20:19;2.40;99.90
21445;DHT22;10883;51.946;20.140;2022-12-04T11:23:04;2.40;99.90
21445;DHT22;10883;51.946;20.140;2022-12-04T11:25:36;2.40;99.90
21445;DHT22;10883;51.946;20.140;2022-12-04T11:28:15;2.30;99.90
21445;DHT22;10883;51.946;20.140;2022-12-04T11:30:48;2.30;99.90
21445;DHT22;10883;51.946;20.140;2022-12-04T11:35:53;2.20;99.90
21445;DHT22;10883;51.946;20.140;2022-12-04T11:38:24;2.30;99.90
21445;DHT22;10883;51.946;20.140;2022-12-04T11:40:54;2.20;99.90
21445;DHT22;10883;51.946;20.140;2022-12-04T11:43:27;2.30;99.90
21445;DHT22;10883;51.946;20.140;2022-12-04T11:46:01;2.20;99.90
21445;DHT22;10883;51.946;20.140;2022-12-04T11:48:39;2.20;99.90
21445;DHT22;10883;51.946;20.140;2022-12-04T11:59:47;2.30;99.90
21445;DHT22;10883;51.946;20.140;2022-12-04T12:07:49;2.20;99.90
21445;DHT22;10883;51.946;20.140;2022-12-04T12:18:21;2.10;99.90
21445;DHT22;10883;51.946;20.140;2022-12-04T12:20:57;2.10;99.90
21445;DHT22;10883;51.946;20.140;2022-12-04T12:23:52;2.10;99.90
21445;DHT22;10883;51.946;20.140;2022-12-04T12:26:33;2.00;99.90
21445;DHT22;10883;51.946;20.140;2022-12-04T12:29:06;2.00;99.90
21445;DHT22;10883;51.946;20.140;2022-12-04T12:34:38;2.00;99.90
21445;DHT22;10883;51.946;20.140;2022-12-04T12:37:15;2.00;99.90
21445;DHT22;10883;51.946;20.140;2022-12-04T12:39:57;2.00;99.90
21445;DHT22;10883;51.946;20.140;2022-12-04T12:42:32;2.00;99.90
21445;DHT22;10883;51.946;20.140;2022-12-04T12:45:35;2.00;99.90
21445;DHT22;10883;51.946;20.140;2022-12-04T12:48:28;2.00;99.90
21445;DHT22;10883;51.946;20.140;2022-12-04T12:53:50;2.10;99.90
21445;DHT22;10883;51.946;20.140;2022-12-04T12:56:28;2.00;99.90
21445;DHT22;10883;51.946;20.140;2022-12-04T12:58:57;2.00;99.90
21445;DHT22;10883;51.946;20.140;2022-12-04T13:01:42;2.00;99.90
21445;DHT22;10883;51.946;20.140;2022-12-04T13:06:44;2.00;99.90
21445;DHT22;10883;51.946;20.140;2022-12-04T13:09:26;2.00;99.90
21445;DHT22;10883;51.946;20.140;2022-12-04T13:12:04;2.00;99.90
21445;DHT22;10883;51.946;20.140;2022-12-04T13:14:33;2.10;99.90
21445;DHT22;10883;51.946;20.140;2022-12-04T13:20:01;2.10;99.90
21445;DHT22;10883;51.946;20.140;2022-12-04T13:28:28;2.00;99.90
21445;DHT22;10883;51.946;20.140;2022-12-04T13:36:43;1.90;99.90
21445;DHT22;10883;51.946;20.140;2022-12-04T13:41:59;1.90;99.90
21445;DHT22;10883;51.946;20.140;2022-12-04T13:44:27;1.90;99.90
21445;DHT22;10883;51.946;20.140;2022-12-04T13:47:04;1.90;99.90
21445;DHT22;10883;51.946;20.140;2022-12-04T13:49:33;1.90;99.90
21445;DHT22;10883;51.946;20.140;2022-12-04T13:52:01;1.90;99.90
21445;DHT22;10883;51.946;20.140;2022-12-04T13:54:36;1.90;99.90
21445;DHT22;10883;51.946;20.140;2022-12-04T13:59:38;1.90;99.90
21445;DHT22;10883;51.946;20.140;2022-12-04T14:02:26;1.90;99.90
21445;DHT22;10883;51.946;20.140;2022-12-04T14:04:56;1.90;99.90
21445;DHT22;10883;51.946;20.140;2022-12-04T14:12:54;1.90;99.90
21445;DHT22;10883;51.946;20.140;2022-12-04T14:15:24;1.90;99.90
21445;DHT22;10883;51.946;20.140;2022-12-04T14:18:01;1.90;99.90
21445;DHT22;10883;51.946;20.140;2022-12-04T14:20:30;1.90;99.90
21445;DHT22;10883;51.946;20.140;2022-12-04T14:25:47;1.90;99.90
21445;DHT22;10883;51.946;20.140;2022-12-04T14:34:01;1.90;99.90
21445;DHT22;10883;51.946;20.140;2022-12-04T14:36:34;1.90;99.90
21445;DHT22;10883;51.946;20.140;2022-12-04T14:39:43;1.80;99.90
21445;DHT22;10883;51.946;20.140;2022-12-04T14:42:25;1.80;99.90
21445;DHT22;10883;51.946;20.140;2022-12-04T14:44:58;1.80;99.90
21445;DHT22;10883;51.946;20.140;2022-12-04T14:55:50;1.90;99.90
21445;DHT22;10883;51.946;20.140;2022-12-04T14:58:19;1.90;99.90
21445;DHT22;10883;51.946;20.140;2022-12-04T15:01:35;1.90;99.90
21445;DHT22;10883;51.946;20.140;2022-12-04T15:03:54;1.90;99.90
21445;DHT22;10883;51.946;20.140;2022-12-04T15:08:58;1.90;99.90
21445;DHT22;10883;51.946;20.140;2022-12-04T15:14:42;1.90;99.90
21445;DHT22;10883;51.946;20.140;2022-12-04T15:17:09;1.90;99.90
21445;DHT22;10883;51.946;20.140;2022-12-04T15:19:36;1.90;99.90
21445;DHT22;10883;51.946;20.140;2022-12-04T15:22:25;1.90;99.90
21445;DHT22;10883;51.946;20.140;2022-12-04T15:24:50;1.90;99.90
21445;DHT22;10883;51.946;20.140;2022-12-04T15:27:23;1.90;99.90
21445;DHT22;10883;51.946;20.140;2022-12-04T15:29:51;1.80;99.90
21445;DHT22;10883;51.946;20.140;2022-12-04T15:32:20;1.90;99.90
21445;DHT22;10883;51.946;20.140;2022-12-04T15:35:08;1.90;99.90
21445;DHT22;10883;51.946;20.140;2022-12-04T15:37:36;1.90;99.90
21445;DHT22;10883;51.946;20.140;2022-12-04T15:40:06;1.90;99.90
21445;DHT22;10883;51.946;20.140;2022-12-04T15:42:32;1.90;99.90
21445;DHT22;10883;51.946;20.140;2022-12-04T15:47:53;1.90;99.90
21445;DHT22;10883;51.946;20.140;2022-12-04T15:50:20;1.90;99.90
21445;DHT22;10883;51.946;20.140;2022-12-04T15:55:22;1.80;99.90
21445;DHT22;10883;51.946;20.140;2022-12-04T15:58:08;1.80;99.90
21445;DHT22;10883;51.946;20.140;2022-12-04T16:00:42;1.80;99.90
21445;DHT22;10883;51.946;20.140;2022-12-04T16:03:23;1.80;99.90
21445;DHT22;10883;51.946;20.140;2022-12-04T16:06:00;1.80;99.90
21445;DHT22;10883;51.946;20.140;2022-12-04T16:08:31;1.80;99.90
21445;DHT22;10883;51.946;20.140;2022-12-04T16:11:03;1.80;99.90
21445;DHT22;10883;51.946;20.140;2022-12-04T16:13:33;1.80;99.90
21445;DHT22;10883;51.946;20.140;2022-12-04T16:15:59;1.70;99.90
21445;DHT22;10883;51.946;20.140;2022-12-04T16:18:26;1.70;99.90
21445;DHT22;10883;51.946;20.140;2022-12-04T16:20:53;1.70;99.90
21445;DHT22;10883;51.946;20.140;2022-12-04T16:23:21;1.80;99.90
21445;DHT22;10883;51.946;20.140;2022-12-04T16:25:47;1.70;99.90
21445;DHT22;10883;51.946;20.140;2022-12-04T16:28:12;1.70;99.90
21445;DHT22;10883;51.946;20.140;2022-12-04T16:30:38;1.70;99.90
21445;DHT22;10883;51.946;20.140;2022-12-04T16:33:04;1.70;99.90
21445;DHT22;10883;51.946;20.140;2022-12-04T16:35:30;1.70;99.90
21445;DHT22;10883;51.946;20.140;2022-12-04T16:37:57;1.70;99.90
21445;DHT22;10883;51.946;20.140;2022-12-04T16:40:23;1.70;99.90
21445;DHT22;10883;51.946;20.140;2022-12-04T16:42:49;1.80;99.90
21445;DHT22;10883;51.946;20.140;2022-12-04T16:45:30;1.70;99.90
21445;DHT22;10883;51.946;20.140;2022-12-04T16:47:56;1.60;99.90
21445;DHT22;10883;51.946;20.140;2022-12-04T16:50:26;1.60;99.90
21445;DHT22;10883;51.946;20.140;2022-12-04T16:52:53;1.60;99.90
21445;DHT22;10883;51.946;20.140;2022-12-04T16:55:28;1.60;99.90
21445;DHT22;10883;51.946;20.140;2022-12-04T16:57:55;1.50;99.90
21445;DHT22;10883;51.946;20.140;2022-12-04T17:00:21;1.60;99.90
21445;DHT22;10883;51.946;20.140;2022-12-04T17:02:47;1.50;99.90
21445;DHT22;10883;51.946;20.140;2022-12-04T17:05:22;1.50;99.90
21445;DHT22;10883;51.946;20.140;2022-12-04T17:07:48;1.50;99.90
21445;DHT22;10883;51.946;20.140;2022-12-04T17:10:14;1.40;99.90
21445;DHT22;10883;51.946;20.140;2022-12-04T17:12:41;1.50;99.90
21445;DHT22;10883;51.946;20.140;2022-12-04T17:15:08;1.50;99.90
21445;DHT22;10883;51.946;20.140;2022-12-04T17:17:34;1.50;99.90
21445;DHT22;10883;51.946;20.140;2022-12-04T17:20:01;1.50;99.90
21445;DHT22;10883;51.946;20.140;2022-12-04T17:22:27;1.50;99.90
21445;DHT22;10883;51.946;20.140;2022-12-04T17:24:53;1.50;99.90
21445;DHT22;10883;51.946;20.140;2022-12-04T17:27:20;1.50;99.90
21445;DHT22;10883;51.946;20.140;2022-12-04T17:29:46;1.50;99.90
21445;DHT22;10883;51.946;20.140;2022-12-04T17:32:12;1.50;99.90
21445;DHT22;10883;51.946;20.140;2022-12-04T17:34:38;1.50;99.90
21445;DHT22;10883;51.946;20.140;2022-12-04T17:37:03;1.60;99.90
21445;DHT22;10883;51.946;20.140;2022-12-04T17:39:29;1.50;99.90
21445;DHT22;10883;51.946;20.140;2022-12-04T17:41:55;1.50;99.90
21445;DHT22;10883;51.946;20.140;2022-12-04T17:44:21;1.50;99.90
21445;DHT22;10883;51.946;20.140;2022-12-04T17:46:47;1.60;99.90
21445;DHT22;10883;51.946;20.140;2022-12-04T17:49:13;1.60;99.90
21445;DHT22;10883;51.946;20.140;2022-12-04T17:51:39;1.60;99.90
21445;DHT22;10883;51.946;20.140;2022-12-04T17:54:06;1.50;99.90
21445;DHT22;10883;51.946;20.140;2022-12-04T17:56:33;1.50;99.90
21445;DHT22;10883;51.946;20.140;2022-12-04T17:58:59;1.50;99.90
21445;DHT22;10883;51.946;20.140;2022-12-04T18:01:26;1.50;99.90
21445;DHT22;10883;51.946;20.140;2022-12-04T18:03:55;1.50;99.90
21445;DHT22;10883;51.946;20.140;2022-12-04T18:06:28;1.60;99.90
21445;DHT22;10883;51.946;20.140;2022-12-04T18:08:55;1.50;99.90
21445;DHT22;10883;51.946;20.140;2022-12-04T18:11:24;1.50;99.90
21445;DHT22;10883;51.946;20.140;2022-12-04T18:14:03;1.50;99.90
21445;DHT22;10883;51.946;20.140;2022-12-04T18:16:31;1.60;99.90
21445;DHT22;10883;51.946;20.140;2022-12-04T18:19:00;1.50;99.90